< < Back
Terminal Aerodrome Forecast


Current Version              Previous Versions:   1  2  3  4  5  6  7  8  9  

Terminal Aerodrome Forecast

688
FTUS42 KMLB 262323
TAFMCO
TAF
KMCO 262323Z 2700/2724 15005KT P6SM FEW035
     FM272000 12008KT P6SM VCTS SCT045CB=

Latest METAR

211
SAUS70 KWBC 270100 RRE
MTRMCO
METAR KMCO 270053Z 14007KT 10SM FEW050 29/23 A3005 RMK AO2 SLP173 CB
DSNT W-NW STNRY T02940233


USA.gov is the U.S. government's official web portal to all federal, state and local government web resources and services.